Time;durP1;ratioP1;P1;durP2;ratioP2;P2;SDS_P1;SDS_P2;PMS_P1;PMS_P2;Temp;Humidity;BMP_temperature;BMP_pressure;BME280_temperature;BME280_humidity;BME280_pressure;Samples;Min_cycle;Max_cycle;Signal;HPM_P1;HPM_P2
2023/05/08 14:35:15;;;;;;;28.58;21.15;;;;;;;23.97;50.22;101742.63;3635518;39;20174;-68
2023/05/08 14:37:41;;;;;;;27.55;20.55;;;;;;;23.87;52.83;101745.50;3622987;39;20042;-69
2023/05/08 14:40:07;;;;;;;27.65;22.35;;;;;;;23.77;51.96;101748.31;3626153;39;20407;-69
2023/05/08 14:42:33;;;;;;;28.25;21.67;;;;;;;23.60;51.96;101732.72;3625390;39;20066;-69
2023/05/08 14:44:59;;;;;;;32.40;23.30;;;;;;;23.51;52.03;101752.88;3624161;39;20061;-68
2023/05/08 14:47:24;;;;;;;30.13;23.08;;;;;;;23.39;52.92;101750.34;3624500;39;20046;-69
2023/05/08 14:49:52;;;;;;;30.10;22.95;;;;;;;23.20;53.05;101745.00;3622940;39;20114;-68
2023/05/08 14:52:18;;;;;;;32.78;23.73;;;;;;;22.77;53.24;101694.47;3622851;39;20053;-68
2023/05/08 14:54:45;;;;;;;29.00;21.63;;;;;;;22.90;53.75;101744.31;3623966;39;20062;-68
2023/05/08 14:57:11;;;;;;;30.73;22.58;;;;;;;22.79;53.48;101749.13;3626227;39;20316;-69
2023/05/08 14:59:36;;;;;;;30.58;22.88;;;;;;;22.70;54.55;101743.53;3620276;39;20054;-69
2023/05/08 15:02:02;;;;;;;29.67;22.83;;;;;;;22.62;55.01;101737.94;3623596;39;20058;-68
2023/05/08 15:04:27;;;;;;;32.97;23.17;;;;;;;22.52;54.68;101747.22;3622977;39;20057;-68
2023/05/08 15:06:53;;;;;;;34.80;23.95;;;;;;;22.44;55.24;101739.75;3623561;39;20050;-68
2023/05/08 15:09:19;;;;;;;32.88;24.02;;;;;;;22.42;55.73;101750.00;3615162;39;20050;-68
2023/05/08 15:11:44;;;;;;;31.95;22.50;;;;;;;22.37;55.62;101731.28;3617357;39;20061;-68
2023/05/08 15:14:10;;;;;;;30.23;22.80;;;;;;;22.47;55.65;101737.56;3625836;39;20050;-68
2023/05/08 15:16:36;;;;;;;30.00;22.42;;;;;;;22.47;54.74;101726.63;3622568;39;20057;-68
2023/05/08 15:19:01;;;;;;;31.95;22.65;;;;;;;22.53;54.94;101718.81;3620934;39;20055;-68
2023/05/08 15:21:27;;;;;;;30.50;21.65;;;;;;;22.66;55.08;101730.28;3620709;39;20050;-68
2023/05/08 15:23:54;;;;;;;30.42;20.73;;;;;;;22.68;54.07;101731.00;3621735;39;20065;-68
2023/05/08 15:26:21;;;;;;;29.10;20.85;;;;;;;22.62;53.10;101715.16;3622253;39;20057;-68
2023/05/08 15:28:47;;;;;;;29.73;20.92;;;;;;;22.69;53.16;101730.84;3622021;39;20312;-68
2023/05/08 15:31:13;;;;;;;27.92;19.38;;;;;;;22.65;52.89;101739.53;3620983;39;20586;-68
2023/05/08 15:33:43;;;;;;;29.83;20.85;;;;;;;22.67;52.67;101732.84;3624064;39;20051;-68
2023/05/08 15:36:13;;;;;;;28.45;19.08;;;;;;;22.69;53.47;101736.31;3623726;39;20043;-69
2023/05/08 15:38:40;;;;;;;28.17;19.48;;;;;;;22.59;53.91;101710.84;3626936;39;20397;-69
2023/05/08 15:41:08;;;;;;;26.90;18.70;;;;;;;22.67;53.66;101732.00;3622920;39;20054;-69
2023/05/08 15:43:35;;;;;;;28.13;20.25;;;;;;;22.64;52.89;101730.41;3626847;39;20066;-68
2023/05/08 15:46:01;;;;;;;29.83;20.60;;;;;;;22.55;52.83;101725.88;3616303;39;20051;-68
2023/05/08 15:48:27;;;;;;;28.17;19.50;;;;;;;22.57;52.91;101731.19;3615793;39;20065;-69
2023/05/08 15:50:52;;;;;;;26.42;18.08;;;;;;;22.58;53.10;101730.16;3618416;39;20067;-70
2023/05/08 15:53:18;;;;;;;28.40;19.27;;;;;;;22.58;52.93;101730.16;3619725;39;20080;-67
2023/05/08 15:55:44;;;;;;;25.35;17.98;;;;;;;22.52;53.99;101722.53;3616981;39;20051;-67
2023/05/08 15:58:09;;;;;;;29.00;19.50;;;;;;;22.58;53.52;101730.16;3619387;39;20080;-67
2023/05/08 16:00:35;;;;;;;26.48;18.52;;;;;;;22.54;52.96;101735.09;3619886;39;20046;-67
2023/05/08 16:03:00;;;;;;;28.85;19.80;;;;;;;22.51;53.39;101731.78;3614714;39;20051;-67
2023/05/08 16:05:26;;;;;;;28.77;19.50;;;;;;;22.46;53.92;101735.84;3615286;39;20053;-67
2023/05/08 16:07:54;;;;;;;25.58;18.75;;;;;;;22.44;54.42;101737.00;3615790;39;20085;-67
2023/05/08 16:10:20;;;;;;;29.50;19.55;;;;;;;22.37;53.69;101739.50;3616506;39;20051;-66
2023/05/08 16:12:45;;;;;;;31.77;20.40;;;;;;;22.31;54.45;101731.00;3619677;39;20066;-67
2023/05/08 16:15:11;;;;;;;26.70;19.83;;;;;;;22.27;55.35;101737.81;3604289;39;20057;-67
2023/05/08 16:17:37;;;;;;;28.42;19.80;;;;;;;22.23;55.76;101734.47;3613585;39;20069;-67
2023/05/08 16:20:04;;;;;;;29.20;19.45;;;;;;;22.15;55.07;101731.59;3606610;39;20416;-67
2023/05/08 16:22:29;;;;;;;28.13;20.17;;;;;;;22.07;55.67;101720.50;3615307;39;20067;-67
2023/05/08 16:24:55;;;;;;;27.85;20.15;;;;;;;22.09;55.69;101730.31;3619053;39;20057;-68
2023/05/08 16:27:21;;;;;;;29.00;20.35;;;;;;;22.10;55.25;101731.16;3614953;39;20057;-68
2023/05/08 16:29:46;;;;;;;27.38;19.77;;;;;;;22.05;55.56;101736.25;3611943;39;20050;-66
2023/05/08 16:32:12;;;;;;;29.13;20.48;;;;;;;22.01;55.70;101736.53;3612840;39;20062;-68
2023/05/08 16:34:38;;;;;;;28.13;20.20;;;;;;;21.96;55.63;101732.50;3616006;39;20127;-67
2023/05/08 16:37:04;;;;;;;26.10;19.58;;;;;;;21.88;56.17;101727.75;3611153;39;20056;-68
2023/05/08 16:39:29;;;;;;;24.38;18.42;;;;;;;21.87;56.23;101723.28;3612696;39;20424;-67
2023/05/08 16:41:55;;;;;;;27.00;19.33;;;;;;;21.83;56.18;101710.91;3614630;39;20070;-68
2023/05/08 16:44:21;;;;;;;29.75;21.40;;;;;;;21.76;55.53;101690.63;3616214;39;20393;-68
2023/05/08 16:46:46;;;;;;;27.00;18.73;;;;;;;21.86;55.67;101715.25;3614181;39;20059;-68
2023/05/08 16:49:13;;;;;;;27.67;19.05;;;;;;;21.88;55.30;101714.06;3614713;39;20066;-68
2023/05/08 16:51:38;;;;;;;25.65;18.55;;;;;;;21.94;56.40;101713.47;3614457;39;20043;-68
2023/05/08 16:54:04;;;;;;;28.52;18.52;;;;;;;21.89;55.16;101682.97;3615312;39;20393;-68
2023/05/08 16:56:30;;;;;;;27.23;18.27;;;;;;;22.03;54.68;101704.38;3615841;39;20665;-68
2023/05/08 16:58:55;;;;;;;25.08;18.52;;;;;;;22.05;55.08;101703.38;3614508;39;20054;-69
2023/05/08 17:01:21;;;;;;;27.60;19.65;;;;;;;22.09;55.36;101702.94;3615724;39;20109;-67
2023/05/08 17:03:47;;;;;;;28.73;19.40;;;;;;;22.10;55.55;101690.09;3617949;39;20088;-69
2023/05/08 17:06:12;;;;;;;23.88;17.52;;;;;;;22.03;55.14;101685.22;3614884;39;20061;-68
2023/05/08 17:08:38;;;;;;;26.58;18.08;;;;;;;22.05;55.54;101695.19;3617750;39;20108;-67
2023/05/08 17:11:04;;;;;;;26.75;18.13;;;;;;;21.78;54.82;101659.34;3615581;39;20050;-67
2023/05/08 17:13:29;;;;;;;25.30;18.42;;;;;;;21.89;55.04;101691.19;3617124;39;20059;-67
2023/05/08 17:15:56;;;;;;;23.67;18.02;;;;;;;21.80;55.48;101686.59;3616758;39;20061;-67
2023/05/08 17:18:21;;;;;;;27.67;18.48;;;;;;;21.72;55.86;101691.91;3614623;39;20054;-67
2023/05/08 17:20:47;;;;;;;25.35;18.70;;;;;;;21.61;56.42;101690.22;3618446;39;20065;-67
2023/05/08 17:23:13;;;;;;;27.50;18.80;;;;;;;21.50;57.09;101698.56;3615284;39;20051;-67
2023/05/08 17:25:38;;;;;;;28.40;18.60;;;;;;;21.40;56.92;101694.97;3613705;39;20054;-67
2023/05/08 17:28:04;;;;;;;28.00;19.42;;;;;;;21.28;57.71;101695.09;3613813;39;20428;-67
2023/05/08 17:30:30;;;;;;;29.45;19.17;;;;;;;21.19;58.23;101695.09;3613829;39;20195;-67
2023/05/08 17:32:57;;;;;;;30.05;19.80;;;;;;;21.06;58.43;101701.69;3613771;39;20055;-67
2023/05/08 17:35:22;;;;;;;28.17;19.10;;;;;;;21.02;58.90;101700.22;3615625;39;20050;-67
2023/05/08 17:37:49;;;;;;;31.63;20.30;;;;;;;20.91;59.41;101696.78;3615368;39;20058;-67
2023/05/08 17:40:15;;;;;;;34.83;19.33;;;;;;;20.83;59.55;101700.19;3614015;39;20309;-66
2023/05/08 17:42:40;;;;;;;28.30;19.40;;;;;;;20.75;59.83;101709.09;3605270;39;20042;-67
2023/05/08 17:45:07;;;;;;;28.58;20.40;;;;;;;20.40;60.73;101661.22;3612600;39;20058;-67
2023/05/08 17:47:32;;;;;;;27.63;19.70;;;;;;;20.35;61.02;101687.22;3616793;39;20121;-67
2023/05/08 17:49:58;;;;;;;28.25;21.05;;;;;;;20.48;62.10;101717.03;3603938;39;20083;-67
2023/05/08 17:52:24;;;;;;;28.27;20.55;;;;;;;20.41;62.17;101722.16;3616451;39;20061;-67
2023/05/08 17:54:50;;;;;;;27.45;21.92;;;;;;;20.06;62.48;101682.47;3614906;39;20063;-67
2023/05/08 17:57:16;;;;;;;27.80;21.50;;;;;;;20.27;62.49;101722.56;3614170;39;20063;-67
2023/05/08 17:59:41;;;;;;;28.00;22.30;;;;;;;20.22;62.52;101728.41;3617202;39;20047;-67
2023/05/08 18:02:07;;;;;;;27.17;23.13;;;;;;;20.16;63.37;101729.81;3613906;39;20096;-67
2023/05/08 18:04:33;;;;;;;29.75;23.50;;;;;;;19.45;63.21;101625.09;3615924;39;20046;-67
2023/05/08 18:07:00;;;;;;;26.90;23.33;;;;;;;19.94;63.18;101713.56;3619040;39;20047;-67
2023/05/08 18:09:29;;;;;;;30.83;23.52;;;;;;;19.96;64.00;101725.25;3615786;39;20143;-67
2023/05/08 18:12:00;;;;;;;30.92;23.75;;;;;;;19.95;64.02;101726.25;3605873;39;20086;-67
2023/05/08 18:14:30;;;;;;;30.10;24.70;;;;;;;19.70;64.10;101689.31;3616761;39;20055;-67
2023/05/08 18:16:56;;;;;;;28.88;24.98;;;;;;;19.81;64.65;101716.50;3615132;39;20098;-67
2023/05/08 18:19:22;;;;;;;29.48;24.80;;;;;;;19.85;63.87;101708.91;3617140;39;20398;-67
2023/05/08 18:21:48;;;;;;;32.60;24.60;;;;;;;19.44;64.15;101647.88;3616254;39;20098;-67
2023/05/08 18:24:13;;;;;;;31.02;24.67;;;;;;;19.66;65.08;101683.25;3619527;39;20043;-67
2023/05/08 18:26:39;;;;;;;27.08;23.33;;;;;;;19.77;65.16;101704.16;3618848;39;20119;-67
2023/05/08 18:29:05;;;;;;;30.33;24.35;;;;;;;19.74;64.83;101701.69;3611068;39;20137;-67
2023/05/08 18:31:31;;;;;;;30.38;24.60;;;;;;;19.65;65.53;101708.78;3614913;39;20096;-68
2023/05/08 18:33:57;;;;;;;31.38;26.33;;;;;;;19.60;66.05;101716.50;3616669;39;20051;-66
2023/05/08 18:36:24;;;;;;;30.05;25.00;;;;;;;19.56;66.49;101719.59;3621169;39;20043;-68
2023/05/08 18:38:49;;;;;;;29.40;25.52;;;;;;;19.49;67.31;101722.84;3617548;39;20442;-68
2023/05/08 18:41:15;;;;;;;30.83;25.98;;;;;;;19.37;67.31;101698.47;3616354;39;20055;-67
2023/05/08 18:43:41;;;;;;;31.20;25.63;;;;;;;19.42;66.95;101713.47;3617635;39;20054;-68
2023/05/08 18:46:12;;;;;;;32.30;25.70;;;;;;;19.36;68.37;101718.56;3615729;39;20067;-68
2023/05/08 18:48:39;;;;;;;27.83;24.98;;;;;;;19.31;67.44;101718.09;3619693;39;20055;-67
2023/05/08 18:51:05;;;;;;;30.70;27.08;;;;;;;19.01;68.70;101670.63;3618484;39;20078;-67
2023/05/08 18:53:32;;;;;;;31.75;26.58;;;;;;;19.07;68.72;101689.19;3616489;39;20054;-67
2023/05/08 18:56:02;;;;;;;29.88;26.67;;;;;;;19.20;68.54;101719.00;3613985;39;20042;-68
2023/05/08 18:58:28;;;;;;;31.02;26.27;;;;;;;19.08;68.88;101695.50;3613903;39;20115;-68
2023/05/08 19:00:56;;;;;;;31.00;27.15;;;;;;;19.11;69.14;101714.31;3617116;39;20116;-69
2023/05/08 19:03:23;;;;;;;32.03;26.73;;;;;;;18.97;69.42;101696.41;3618150;39;20046;-68
2023/05/08 19:05:50;;;;;;;29.45;26.30;;;;;;;18.84;70.08;101688.41;3617016;39;20431;-67
2023/05/08 19:08:16;;;;;;;30.77;27.45;;;;;;;18.96;69.58;101714.59;3617345;39;20585;-68
2023/05/08 19:10:43;;;;;;;32.72;29.13;;;;;;;18.90;70.76;101700.63;3617623;39;20058;-67
2023/05/08 19:13:08;;;;;;;32.92;29.40;;;;;;;18.82;70.43;101695.81;3613471;39;20069;-68
2023/05/08 19:15:34;;;;;;;32.90;28.05;;;;;;;18.81;71.52;101701.38;3616567;39;20050;-69
2023/05/08 19:18:01;;;;;;;35.28;28.73;;;;;;;18.70;72.41;101689.50;3614135;39;20400;-68
2023/05/08 19:20:27;;;;;;;32.03;28.48;;;;;;;18.37;72.09;101648.72;3617043;39;20346;-68
2023/05/08 19:22:53;;;;;;;35.17;29.45;;;;;;;18.61;73.15;101705.72;3617058;39;20094;-68
2023/05/08 19:25:19;;;;;;;36.03;28.70;;;;;;;18.55;73.24;101702.53;3616961;39;20046;-68
2023/05/08 19:27:45;;;;;;;35.25;28.83;;;;;;;18.52;73.62;101699.16;3608249;39;20345;-68
2023/05/08 19:30:11;;;;;;;35.75;28.30;;;;;;;17.99;74.64;101617.31;3618849;39;20079;-68
2023/05/08 19:32:37;;;;;;;35.10;28.88;;;;;;;18.44;74.18;101697.06;3615503;39;20115;-67
2023/05/08 19:35:03;;;;;;;35.80;27.52;;;;;;;18.38;75.10;101710.31;3615225;39;20406;-68
2023/05/08 19:37:28;;;;;;;35.15;28.00;;;;;;;18.31;76.00;101689.03;3615250;39;20046;-68
2023/05/08 19:39:55;;;;;;;39.25;29.75;;;;;;;18.26;75.33;101695.84;3617808;39;20051;-67
2023/05/08 19:42:21;;;;;;;35.95;27.90;;;;;;;17.74;75.99;101621.09;3618304;39;20122;-68
2023/05/08 19:44:46;;;;;;;37.67;28.50;;;;;;;17.99;76.65;101677.16;3622864;39;20062;-67
2023/05/08 19:47:12;;;;;;;37.28;27.73;;;;;;;17.91;77.38;101683.19;3622849;39;20054;-67
2023/05/08 19:49:38;;;;;;;37.05;29.05;;;;;;;17.97;77.96;101706.34;3620137;39;20046;-67
2023/05/08 19:52:05;;;;;;;38.75;29.23;;;;;;;17.93;78.46;101710.28;3619784;39;20065;-67
2023/05/08 19:54:30;;;;;;;37.45;29.38;;;;;;;17.83;78.48;101711.00;3622351;39;20535;-67
2023/05/08 19:56:56;;;;;;;38.88;31.35;;;;;;;17.70;79.54;101710.22;3618399;39;20096;-70
2023/05/08 19:59:22;;;;;;;41.33;31.52;;;;;;;17.27;80.17;101659.16;3617585;39;20084;-69
2023/05/08 20:01:49;;;;;;;41.45;31.45;;;;;;;17.52;80.94;101711.63;3619345;39;20294;-69
2023/05/08 20:04:15;;;;;;;40.20;30.63;;;;;;;17.46;80.79;101717.53;3617652;39;20149;-70
2023/05/08 20:06:41;;;;;;;37.05;29.85;;;;;;;17.40;81.52;101722.44;3617330;39;20063;-68
2023/05/08 20:09:07;;;;;;;41.80;30.65;;;;;;;17.35;82.17;101727.38;3620759;39;20293;-68
2023/05/08 20:11:33;;;;;;;41.85;31.20;;;;;;;17.35;82.36;101732.81;3614930;39;20098;-69
2023/05/08 20:13:59;;;;;;;44.70;32.92;;;;;;;17.33;82.68;101734.78;3617158;39;20069;-67
2023/05/08 20:16:25;;;;;;;43.88;31.83;;;;;;;17.30;82.19;101742.28;3615662;39;20410;-68
2023/05/08 20:18:52;;;;;;;46.92;32.95;;;;;;;17.21;82.88;101724.81;3619224;39;20062;-69
2023/05/08 20:21:19;;;;;;;43.03;32.97;;;;;;;17.26;82.47;101738.09;3614651;39;20104;-68
2023/05/08 20:23:45;;;;;;;46.55;32.88;;;;;;;17.23;83.44;101744.63;3619988;39;20055;-68
2023/05/08 20:26:10;;;;;;;43.05;32.15;;;;;;;17.17;83.67;101739.63;3620076;39;20085;-68
2023/05/08 20:28:36;;;;;;;42.58;32.25;;;;;;;17.17;83.40;101742.34;3621671;39;20062;-69
2023/05/08 20:31:01;;;;;;;40.88;30.63;;;;;;;17.13;82.56;101743.56;3619037;39;20071;-67
2023/05/08 20:33:27;;;;;;;41.88;31.38;;;;;;;17.10;83.65;101735.66;3617569;39;20054;-68
2023/05/08 20:35:53;;;;;;;41.38;30.48;;;;;;;16.81;82.97;101695.22;3620522;39;20061;-68
2023/05/08 20:38:19;;;;;;;42.03;30.55;;;;;;;17.07;83.15;101741.31;3619961;39;20284;-68
2023/05/08 20:40:45;;;;;;;43.97;32.95;;;;;;;17.08;82.59;101735.75;3620963;39;20082;-72
2023/05/08 20:43:11;;;;;;;40.58;30.75;;;;;;;17.06;82.68;101735.03;3619160;39;20057;-69
2023/05/08 20:45:37;;;;;;;41.42;30.35;;;;;;;17.05;82.85;101744.13;3620864;39;20069;-68
2023/05/08 20:48:03;;;;;;;45.05;32.45;;;;;;;17.03;82.57;101737.97;3617456;39;20061;-68
2023/05/08 20:50:30;;;;;;;44.05;33.35;;;;;;;17.03;82.15;101742.50;3611501;39;20334;-67
2023/05/08 20:52:55;;;;;;;45.40;32.45;;;;;;;16.99;82.05;101747.28;3620030;39;20058;-69
2023/05/08 20:55:21;;;;;;;42.28;31.83;;;;;;;16.93;83.07;101732.31;3616077;39;20058;-68
2023/05/08 20:57:47;;;;;;;46.10;32.40;;;;;;;16.98;82.33;101744.72;3617641;39;20061;-69
2023/05/08 21:00:13;;;;;;;43.88;31.27;;;;;;;16.99;83.26;101741.00;3617646;39;20366;-69
2023/05/08 21:02:40;;;;;;;48.67;33.35;;;;;;;17.00;82.07;101726.44;3620781;39;20047;-68
2023/05/08 21:05:06;;;;;;;47.35;32.25;;;;;;;16.77;82.12;101682.84;3619782;39;20062;-67
2023/05/08 21:07:32;;;;;;;47.78;33.05;;;;;;;17.00;81.93;101721.88;3616549;39;20057;-68
2023/05/08 21:09:58;;;;;;;48.35;34.35;;;;;;;17.00;82.29;101716.47;3615980;39;20075;-67
2023/05/08 21:12:25;;;;;;;48.30;34.38;;;;;;;16.98;82.10;101722.97;3615221;39;20304;-67
2023/05/08 21:14:50;;;;;;;46.33;33.45;;;;;;;16.92;82.93;101714.28;3614132;39;20457;-67
2023/05/08 21:17:16;;;;;;;47.47;34.28;;;;;;;16.94;83.19;101709.63;3618385;39;20050;-67
2023/05/08 21:19:42;;;;;;;52.00;34.47;;;;;;;16.94;82.97;101709.63;3613735;39;20054;-67
2023/05/08 21:22:08;;;;;;;47.78;35.03;;;;;;;16.73;82.42;101672.31;3619809;39;20063;-68
2023/05/08 21:24:36;;;;;;;51.05;35.58;;;;;;;16.94;82.76;101706.91;3614320;39;20080;-67
2023/05/08 21:27:01;;;;;;;51.35;34.63;;;;;;;16.92;82.36;101708.88;3613934;39;20062;-67
2023/05/08 21:29:27;;;;;;;46.58;34.58;;;;;;;16.91;82.23;101711.72;3618449;39;20065;-67
2023/05/08 21:31:53;;;;;;;49.20;34.97;;;;;;;16.88;81.85;101701.94;3616557;39;20452;-67
2023/05/08 21:34:21;;;;;;;48.33;34.75;;;;;;;16.86;81.88;101708.47;3618538;39;20055;-67
2023/05/08 21:36:47;;;;;;;44.35;32.13;;;;;;;16.78;82.09;101698.19;3614932;39;20057;-67
2023/05/08 21:39:13;;;;;;;45.28;32.70;;;;;;;16.80;81.35;101715.19;3620867;39;20113;-67
2023/05/08 21:41:42;;;;;;;42.45;30.05;;;;;;;16.78;81.83;101706.31;3615531;39;20047;-68
2023/05/08 21:44:10;;;;;;;40.15;30.27;;;;;;;16.77;82.09;101707.28;3614865;39;20055;-67
2023/05/08 21:46:36;;;;;;;46.50;31.95;;;;;;;16.56;81.29;101658.13;3617305;39;20047;-67
2023/05/08 21:49:02;;;;;;;41.22;30.70;;;;;;;16.72;80.95;101687.75;3616948;39;20042;-67
2023/05/08 21:51:28;;;;;;;39.47;29.30;;;;;;;16.73;80.83;101694.03;3616318;39;20050;-67
2023/05/08 21:53:54;;;;;;;39.03;30.02;;;;;;;16.66;81.23;101682.75;3615629;39;20080;-67
2023/05/08 21:56:20;;;;;;;40.78;30.50;;;;;;;16.64;81.85;101680.13;3616487;39;20094;-67
2023/05/08 21:58:46;;;;;;;37.53;28.80;;;;;;;16.64;81.94;101672.00;3618314;39;20285;-67
2023/05/08 22:01:11;;;;;;;39.25;29.60;;;;;;;16.64;81.71;101679.28;3617200;39;20051;-68
2023/05/08 22:03:37;;;;;;;39.47;30.10;;;;;;;16.58;82.01;101671.59;3616226;39;20086;-67
2023/05/08 22:06:03;;;;;;;37.90;29.20;;;;;;;16.60;81.51;101664.22;3604958;39;20055;-67
2023/05/08 22:08:29;;;;;;;37.08;28.85;;;;;;;16.61;81.63;101655.06;3619587;39;20058;-67
2023/05/08 22:10:54;;;;;;;39.05;29.70;;;;;;;16.57;81.26;101654.44;3618964;39;20050;-67
2023/05/08 22:13:20;;;;;;;41.65;30.55;;;;;;;16.45;82.39;101649.91;3619066;39;20050;-67
2023/05/08 22:15:46;;;;;;;38.50;28.90;;;;;;;16.51;82.18;101659.44;3615038;39;20297;-67
2023/05/08 22:18:13;;;;;;;39.40;28.98;;;;;;;16.51;83.15;101659.44;3616614;39;20127;-68
2023/05/08 22:20:39;;;;;;;39.33;29.33;;;;;;;16.51;82.23;101649.47;3614078;39;20050;-68
2023/05/08 22:23:05;;;;;;;42.03;29.63;;;;;;;16.47;82.92;101648.81;3616425;39;20402;-68
2023/05/08 22:25:31;;;;;;;44.80;31.98;;;;;;;16.41;82.99;101645.69;3615133;39;20198;-67
2023/05/08 22:27:56;;;;;;;40.65;31.25;;;;;;;15.93;82.67;101561.50;3617299;39;20050;-68
2023/05/08 22:30:22;;;;;;;42.03;31.27;;;;;;;16.35;83.32;101636.16;3618035;39;20282;-67
2023/05/08 22:32:55;;;;;;;43.40;31.67;;;;;;;16.33;83.46;101640.81;3614516;39;20321;-68
2023/05/08 22:35:23;;;;;;;44.43;30.67;;;;;;;16.30;83.88;101637.47;3612088;39;20043;-68
2023/05/08 22:37:51;;;;;;;40.85;30.98;;;;;;;16.30;83.58;101635.63;3616077;39;20050;-68
2023/05/08 22:40:17;;;;;;;42.05;30.30;;;;;;;16.27;83.92;101629.53;3615133;39;20054;-68
2023/05/08 22:42:44;;;;;;;39.78;30.50;;;;;;;16.25;83.84;101622.38;3608225;39;20178;-68
2023/05/08 22:45:11;;;;;;;38.70;29.45;;;;;;;16.27;83.36;101629.53;3618329;39;20356;-68
2023/05/08 22:47:37;;;;;;;41.53;29.52;;;;;;;15.84;84.16;101552.19;3616647;39;20062;-68
2023/05/08 22:50:07;;;;;;;36.50;27.80;;;;;;;16.20;83.44;101624.56;3612487;39;20212;-68
2023/05/08 22:52:38;;;;;;;38.72;28.67;;;;;;;16.20;84.08;101618.28;3617342;39;20351;-68
2023/05/08 22:55:04;;;;;;;37.40;27.88;;;;;;;16.20;84.59;101613.72;3617136;39;20066;-68
2023/05/08 22:57:30;;;;;;;39.30;28.45;;;;;;;15.84;83.56;101551.31;3616687;39;20401;-68
2023/05/08 22:59:56;;;;;;;38.55;27.48;;;;;;;16.15;83.65;101615.03;3608713;39;20062;-67
2023/05/08 23:02:22;;;;;;;38.88;29.08;;;;;;;16.11;84.56;101614.41;3617771;39;20424;-68
2023/05/08 23:04:48;;;;;;;38.83;28.67;;;;;;;16.07;84.71;101617.44;3615891;39;20059;-69
2023/05/08 23:07:13;;;;;;;38.20;28.08;;;;;;;16.09;85.30;101610.06;3615609;39;20051;-68
2023/05/08 23:09:39;;;;;;;34.72;26.77;;;;;;;16.08;84.51;101611.91;3618944;39;20480;-68
2023/05/08 23:12:05;;;;;;;32.72;26.45;;;;;;;16.09;83.79;101593.78;3617812;39;20082;-68
2023/05/08 23:14:31;;;;;;;33.42;26.27;;;;;;;16.06;83.79;101594.88;3620750;39;20051;-68
2023/05/08 23:16:57;;;;;;;34.13;26.63;;;;;;;16.00;83.28;101582.63;3620338;39;20061;-68
2023/05/08 23:19:22;;;;;;;34.97;27.05;;;;;;;15.96;84.11;101567.56;3619292;39;20050;-68
2023/05/08 23:21:48;;;;;;;37.10;26.55;;;;;;;16.01;84.35;101567.22;3619408;39;20054;-68
2023/05/08 23:24:13;;;;;;;36.92;25.83;;;;;;;16.00;85.07;101569.06;3621232;39;20055;-68
2023/05/08 23:26:39;;;;;;;35.35;25.73;;;;;;;15.98;84.97;101560.19;3618393;39;20354;-68
2023/05/08 23:29:05;;;;;;;37.92;26.13;;;;;;;15.96;84.42;101558.56;3611561;39;20050;-67
2023/05/08 23:31:30;;;;;;;33.58;25.88;;;;;;;15.97;84.49;101560.28;3620048;39;20419;-68
2023/05/08 23:33:56;;;;;;;33.78;24.95;;;;;;;15.96;83.74;101554.00;3617551;39;20055;-68
2023/05/08 23:36:22;;;;;;;33.10;23.65;;;;;;;15.67;84.44;101501.91;3618203;39;20051;-68
2023/05/08 23:38:47;;;;;;;33.30;24.98;;;;;;;15.97;84.06;101553.00;3617632;39;20061;-68
2023/05/08 23:41:13;;;;;;;32.50;24.88;;;;;;;15.93;84.60;101540.66;3618451;39;20062;-68
2023/05/08 23:43:39;;;;;;;32.00;24.42;;;;;;;15.96;85.16;101551.28;3616038;39;20104;-67
2023/05/08 23:46:05;;;;;;;32.78;25.67;;;;;;;15.95;84.56;101549.56;3618177;39;20055;-67
2023/05/08 23:48:31;;;;;;;31.63;24.67;;;;;;;15.92;84.41;101547.06;3622055;39;20046;-68
2023/05/08 23:50:57;;;;;;;32.20;23.45;;;;;;;15.92;84.02;101548.88;3614552;39;20099;-68
2023/05/08 23:53:22;;;;;;;32.58;23.73;;;;;;;15.92;85.02;101551.59;3618983;39;20485;-67
2023/05/08 23:55:51;;;;;;;29.10;22.67;;;;;;;15.92;84.23;101544.38;3616551;39;20047;-67
2023/05/08 23:58:17;;;;;;;28.55;21.45;;;;;;;15.82;83.49;101532.44;3617017;39;20083;-67
